Boeing 747-400 совершил жёсткую посадку с нигерийскими хаджи

Опубликовано 08.12.2021 в рубрике Новости. Автор:

Boeing 747-4B5 нигерийской авиакомпании Max Air (VM) приземлился в аэропорту Минны, штат Нигер, Нигерия, с отказавшим двигателем, перебежав полосу.

Самолёт выполнял чартерный рейс NR2092 с паломниками хаджа из Джидды, Саудовская Аравия, в Минну. При подлёте к пункту назначения экипажу пришлось заглушить один из двигателей (Pratt & Whitney PW4056). Пилоты продолжили маневр, приземлившись на ВПП 23 (длиной 3 400 метров), однако замедлить до приемлемой скорости самолёт в пределах асфальтового покрытия полосы не удалось; он остановился на грунте.

  • Дата инцидента: 7 сентября 2019 года.
  • Рейс: международный чартерный, NR2092 из Джидды, аэропорта Король Абдул-Азиз (JED), в Минну (MXJ).
  • Пассажиры и экипаж на борту: около 560 пассажиров и 19 членов экипажа.
  • Пострадавшие: нет.
  • История самолёта: регистрационный номер 5N-DBK*, первый полёт 22,8 года назад; выпущен в Эверетте по заказу Korean Air Lines (KE), текущий пользователь — второй по счёту.
  • Последствия: гондола двигателя #1 (левого внешнего) повреждена трением об асфальт.
  • Предварительные данные расследования: не доступны.

8 сентября 2019 года авиакомпания выпустила заявление, в котором описала инцидент как приземление в сильный ливень при порывистом ветре; курсо-глиссадная система была в «эпилептическом» состоянии, выдавая ненадёжные сигналы. Экипаж выполнил заход на посадку, используя свои богатые знания о местности, и благополучно приземлился, остановив самолёт на взлётно-посадочной полосе. Один из двигателей, тем не менее, коснулся поверхности и слегка поцарапался. Лёгкое раскачивание было вызвано сложными маневрами в сильном нисходящем воздушном потоке. Посадка не была аварийной, самолёт с полосы не съезжал.

DNMN 070500Z 00000KT 7000 FEW007 23/22 Q1014 NOSIG=
DNMN 070400Z 01014KT 9999 SCT008 24/22 Q1014 TEMPO FEW018CB=
DNMN 070200Z 03004KT 9999 FEW007 23/22 Q1013 NOSIG=
DNMN 070100Z 05005KT 9999 FEW007 23/21 Q1013 NOSIG=

Читайте также:  Boeing 777-200ER

*для иллюстрации использовано фото аналогичного самолёта той же авиакомпании

Top.Mail.Ru